CheckWX is a tool to help pilots better visualize weather data.  It is not intended as a substitute for an official pre-flight weather briefing.

06:45:07 UTC

KFST TAF
Fort Stockton-Pecos County Airport
Fort Stockton, Texas, USA
KFST 160540Z 1606/1706 17011KT P6SM SCT250 FM161200 24011KT P6SM SCT250 FM161800 33009KT P6SM SCT250 FM170000 16009KT P6SM SCT250

Jun-16@
06:00 UTC

Jun-16 @ 06:00 UTC

Jun-16@
12:00 UTC

Jun-16 @ 12:00 UTC

KFST 160540Z 1606/1706 17011KT P6SM SCT250
Wind
  • 170° at 11 KTS
Cloud Levels
  • Scattered at 25,000' AGL

Jun-16@
12:00 UTC

Jun-16 @ 12:00 UTC

Jun-16@
18:00 UTC

Jun-16 @ 18:00 UTC

FM161200 24011KT P6SM SCT250

From

From Standard forecast or significant change

Wind
  • 240° at 11 KTS
Cloud Levels
  • Scattered at 25,000' AGL

Jun-16@
18:00 UTC

Jun-16 @ 18:00 UTC

Jun-17@
00:00 UTC

Jun-17 @ 00:00 UTC

FM161800 33009KT P6SM SCT250

From

From Standard forecast or significant change

Wind
  • 330° at 9 KTS
Cloud Levels
  • Scattered at 25,000' AGL

Jun-17@
00:00 UTC

Jun-17 @ 00:00 UTC

Jun-17@
06:00 UTC

Jun-17 @ 06:00 UTC

FM170000 16009KT P6SM SCT250

From

From Standard forecast or significant change

Wind
  • 160° at 9 KTS
Cloud Levels
  • Scattered at 25,000' AGL